Time;durP1;ratioP1;P1;durP2;ratioP2;P2;SDS_P1;SDS_P2;PMS_P1;PMS_P2;Temp;Humidity;BMP_temperature;BMP_pressure;BME280_temperature;BME280_humidity;BME280_pressure;Samples;Min_cycle;Max_cycle;Signal;HPM_P1;HPM_P2
2022/12/24 00:01:02;;;;;;;;;;;;;;;12.85;58.08;99606.50;2325174;76;51554;-76
2022/12/24 00:04:04;;;;;;;;;;;;;;;12.84;58.12;99613.64;2325083;76;52529;-76
2022/12/24 00:07:05;;;;;;;;;;;;;;;12.86;58.09;99618.77;2324939;76;50689;-77
2022/12/24 00:10:08;;;;;;;;;;;;;;;12.86;58.12;99615.60;2345130;74;50682;-77
2022/12/24 00:13:09;;;;;;;;;;;;;;;12.86;58.10;99624.07;2345182;76;51529;-77
2022/12/24 00:16:11;;;;;;;;;;;;;;;12.84;58.19;99614.97;2299132;76;51863;-76
2022/12/24 00:19:12;;;;;;;;;;;;;;;12.85;58.23;99617.94;2325161;75;50107;-76
2022/12/24 00:22:14;;;;;;;;;;;;;;;12.86;58.09;99619.58;2325159;76;50367;-77
2022/12/24 00:25:15;;;;;;;;;;;;;;;12.86;58.11;99606.81;2330714;75;50475;-76
2022/12/24 00:28:17;;;;;;;;;;;;;;;12.85;58.11;99605.99;2301535;74;50123;-77
2022/12/24 00:31:19;;;;;;;;;;;;;;;12.84;58.12;99604.35;2325229;76;51599;-77
2022/12/24 00:34:22;;;;;;;;;;;;;;;12.85;58.15;99610.48;2345006;76;50787;-76
2022/12/24 00:37:23;;;;;;;;;;;;;;;12.84;58.13;99612.31;2344778;75;51539;-79
2022/12/24 00:40:25;;;;;;;;;;;;;;;12.84;58.09;99610.98;2325313;75;52396;-78
2022/12/24 00:43:27;;;;;;;;;;;;;;;12.86;58.13;99620.09;2345453;76;51544;-78
2022/12/24 00:46:29;;;;;;;;;;;;;;;12.85;58.11;99616.61;2345237;76;51534;-78
2022/12/24 00:49:31;;;;;;;;;;;;;;;12.84;58.14;99622.93;2345635;74;50366;-78
2022/12/24 00:52:32;;;;;;;;;;;;;;;12.84;58.18;99626.91;2345559;76;50778;-78
2022/12/24 00:55:34;;;;;;;;;;;;;;;12.84;58.19;99626.91;2334592;73;52569;-77
2022/12/24 00:58:36;;;;;;;;;;;;;;;12.85;58.12;99634.38;2326370;75;51659;-79
2022/12/24 01:01:37;;;;;;;;;;;;;;;12.84;58.13;99641.52;2345454;76;50657;-78
2022/12/24 01:07:58;;;;;;;;;;;;;;;12.84;58.16;99642.84;2328901;74;23408;-78
2022/12/24 01:11:00;;;;;;;;;;;;;;;12.83;58.17;99645.66;2325722;76;50674;-78
2022/12/24 01:14:02;;;;;;;;;;;;;;;12.83;58.10;99648.31;2345584;76;50294;-78
2022/12/24 01:17:04;;;;;;;;;;;;;;;12.83;58.16;99647.80;2345196;76;50863;-78
2022/12/24 01:20:06;;;;;;;;;;;;;;;12.84;58.13;99653.94;2325413;75;51230;-79
2022/12/24 01:23:07;;;;;;;;;;;;;;;12.83;58.12;99655.77;2325575;76;50427;-78
2022/12/24 01:26:10;;;;;;;;;;;;;;;12.82;58.23;99658.11;2339811;74;50550;-77
2022/12/24 01:29:12;;;;;;;;;;;;;;;12.84;58.14;99660.57;2345441;74;51683;-78
2022/12/24 01:32:14;;;;;;;;;;;;;;;12.83;58.15;99658.92;2325744;76;52625;-78
2022/12/24 01:35:15;;;;;;;;;;;;;;;12.83;58.14;99657.09;2325643;76;51502;-78
2022/12/24 01:38:17;;;;;;;;;;;;;;;12.82;58.21;99663.41;2314511;75;51480;-77
2022/12/24 01:44:40;;;;;;;;;;;;;;;12.82;58.15;99664.74;2308420;76;22341;-79
2022/12/24 01:47:42;;;;;;;;;;;;;;;12.84;58.08;99661.42;2306874;76;50815;-79
2022/12/24 01:50:44;;;;;;;;;;;;;;;12.84;58.06;99665.41;2307768;76;50761;-78
2022/12/24 01:53:47;;;;;;;;;;;;;;;12.84;58.15;99681.81;2308632;76;51322;-78
2022/12/24 01:56:50;;;;;;;;;;;;;;;12.83;58.15;99676.19;2337237;75;51592;-78
2022/12/24 01:59:53;;;;;;;;;;;;;;;12.83;58.13;99683.64;2345601;74;50877;-78
2022/12/24 02:02:54;;;;;;;;;;;;;;;12.84;58.08;99685.80;2345533;76;51686;-78
2022/12/24 02:05:56;;;;;;;;;;;;;;;12.83;58.07;99683.64;2325666;76;51952;-78
2022/12/24 02:08:58;;;;;;;;;;;;;;;12.82;58.13;99688.63;2325419;75;51765;-78
2022/12/24 02:11:59;;;;;;;;;;;;;;;12.83;58.11;99698.24;2345569;76;50764;-78
2022/12/24 02:15:01;;;;;;;;;;;;;;;12.83;58.16;99697.42;2345449;76;51599;-78
2022/12/24 02:18:04;;;;;;;;;;;;;;;12.82;58.16;99703.23;2345065;74;50789;-78
2022/12/24 02:21:24;;;;;;;;;;;;;;;12.83;58.15;99713.34;2324646;76;51812;-78
2022/12/24 02:24:27;;;;;;;;;;;;;;;12.83;58.12;99714.67;2345326;76;51581;-78
2022/12/24 02:27:30;;;;;;;;;;;;;;;12.81;58.18;99719.31;2355770;75;51562;-78
2022/12/24 02:30:49;;;;;;;;;;;;;;;12.82;58.25;99727.13;2344204;75;51384;-78
2022/12/24 02:33:52;;;;;;;;;;;;;;;12.83;58.12;99730.60;2324629;76;51757;-79
2022/12/24 02:37:01;;;;;;;;;;;;;;;12.83;58.14;99742.05;2344794;75;50782;-79
2022/12/24 02:40:03;;;;;;;;;;;;;;;12.82;58.15;99748.37;2344142;74;50351;-78
2022/12/24 02:43:07;;;;;;;;;;;;;;;12.81;58.21;99745.36;2345272;76;51314;-78
2022/12/24 02:46:10;;;;;;;;;;;;;;;12.83;58.09;99747.86;2345072;75;54861;-78
2022/12/24 02:49:12;;;;;;;;;;;;;;;12.82;58.13;99752.34;2345155;74;52450;-78
2022/12/24 02:52:32;;;;;;;;;;;;;;;12.81;58.21;99753.33;2345305;75;51519;-78
2022/12/24 02:55:47;;;;;;;;;;;;;;;12.82;58.12;99757.66;2331833;75;51266;-79
2022/12/24 02:58:53;;;;;;;;;;;;;;;12.81;58.16;99766.59;2235988;78;51309;-79
2022/12/24 03:02:12;;;;;;;;;;;;;;;12.81;58.16;99767.92;2261046;77;51514;-78
2022/12/24 03:05:24;;;;;;;;;;;;;;;12.81;58.13;99766.59;2260924;78;51462;-78
2022/12/24 03:08:44;;;;;;;;;;;;;;;12.82;58.16;99764.80;2270470;76;51554;-79
2022/12/24 03:11:47;;;;;;;;;;;;;;;12.82;58.11;99776.23;2236094;78;51670;-78
2022/12/24 03:14:49;;;;;;;;;;;;;;;12.81;58.23;99781.20;2261066;78;50362;-78
2022/12/24 03:17:52;;;;;;;;;;;;;;;12.80;58.15;99780.87;2260867;77;51599;-78
2022/12/24 03:21:13;;;;;;;;;;;;;;;12.80;58.16;99781.38;2261010;78;52324;-78
2022/12/24 03:24:15;;;;;;;;;;;;;;;12.80;58.23;99783.53;2235719;78;51674;-78
2022/12/24 03:27:16;;;;;;;;;;;;;;;12.80;58.16;99787.52;2247902;77;50784;-78
2022/12/24 03:30:18;;;;;;;;;;;;;;;12.80;58.18;99790.17;2260983;78;51576;-78
2022/12/24 03:33:20;;;;;;;;;;;;;;;12.80;58.16;99792.83;2264296;77;51496;-78
2022/12/24 03:36:24;;;;;;;;;;;;;;;12.80;58.23;99795.48;2314494;76;51800;-78
2022/12/24 03:39:25;;;;;;;;;;;;;;;12.80;58.14;99800.79;2289250;76;22978;-79
2022/12/24 03:42:26;;;;;;;;;;;;;;;12.81;58.13;99802.94;2307861;76;50415;-78
2022/12/24 03:45:28;;;;;;;;;;;;;;;12.83;58.10;99818.20;2308174;77;49976;-78
2022/12/24 03:48:29;;;;;;;;;;;;;;;12.81;58.24;99815.70;2314485;76;51156;-78
2022/12/24 03:51:32;;;;;;;;;;;;;;;12.81;58.24;99821.02;2288694;77;50331;-78
2022/12/24 03:54:33;;;;;;;;;;;;;;;12.80;58.17;99825.19;2318486;76;51648;-78
2022/12/24 03:57:35;;;;;;;;;;;;;;;12.79;58.28;99832.33;2356205;73;50685;-78
2022/12/24 04:00:36;;;;;;;;;;;;;;;12.81;58.22;99834.80;2325433;76;51622;-78
2022/12/24 04:03:38;;;;;;;;;;;;;;;12.79;58.24;99840.29;2325454;76;50305;-78
2022/12/24 04:06:40;;;;;;;;;;;;;;;12.80;58.16;99841.11;2345381;76;50310;-78
2022/12/24 04:09:41;;;;;;;;;;;;;;;12.80;58.23;99833.15;2325601;75;50784;-78
2022/12/24 04:12:43;;;;;;;;;;;;;;;12.80;58.28;99841.11;2299758;76;52481;-78
2022/12/24 04:15:44;;;;;;;;;;;;;;;12.81;58.13;99846.23;2325569;76;50341;-78
2022/12/24 04:18:46;;;;;;;;;;;;;;;12.80;58.18;99842.44;2325432;75;50669;-78
2022/12/24 04:21:47;;;;;;;;;;;;;;;12.81;58.21;99835.62;2325571;76;50804;-78
2022/12/24 04:24:49;;;;;;;;;;;;;;;12.79;58.17;99836.30;2309830;73;52749;-78
2022/12/24 04:27:51;;;;;;;;;;;;;;;12.80;58.15;99839.28;2354650;73;50671;-78
2022/12/24 04:30:54;;;;;;;;;;;;;;;12.80;58.26;99845.92;2394062;74;51313;-78
2022/12/24 04:33:55;;;;;;;;;;;;;;;12.80;58.32;99853.88;2393570;74;51422;-78
2022/12/24 04:36:57;;;;;;;;;;;;;;;12.81;58.25;99863.49;2338611;74;52467;-78
2022/12/24 04:39:59;;;;;;;;;;;;;;;12.80;58.20;99872.97;2365561;73;51475;-78
2022/12/24 04:43:00;;;;;;;;;;;;;;;12.81;58.22;99870.13;2365779;74;50302;-78
2022/12/24 04:46:09;;;;;;;;;;;;;;;12.82;58.21;99886.91;2365149;74;50154;-76
2022/12/24 04:49:11;;;;;;;;;;;;;;;12.81;58.23;99886.56;2365029;74;51040;-77
2022/12/24 04:52:12;;;;;;;;;;;;;;;12.81;58.21;99895.34;2365164;74;50307;-78
2022/12/24 04:55:14;;;;;;;;;;;;;;;12.82;58.11;99898.36;2351026;75;50175;-78
2022/12/24 04:58:16;;;;;;;;;;;;;;;12.81;58.22;99898.00;2372361;73;50293;-78
2022/12/24 05:01:24;;;;;;;;;;;;;;;12.80;58.15;99896.36;2347214;75;51679;-78
2022/12/24 05:04:25;;;;;;;;;;;;;;;12.81;58.18;99898.00;2377888;73;51605;-78
2022/12/24 05:07:27;;;;;;;;;;;;;;;12.82;58.15;99905.00;2347479;75;51584;-77
2022/12/24 05:10:29;;;;;;;;;;;;;;;12.81;58.18;99913.94;2347502;75;51490;-78
2022/12/24 05:13:30;;;;;;;;;;;;;;;12.82;58.13;99914.79;2347645;75;50941;-78
2022/12/24 05:16:32;;;;;;;;;;;;;;;12.83;58.08;99915.94;2347299;75;50763;-78
2022/12/24 05:19:33;;;;;;;;;;;;;;;12.82;58.16;99911.63;2347533;75;51310;-78
2022/12/24 05:29:14;;;;;;;;;;;;;;;12.81;58.18;99916.59;2378628;73;22330;-78
2022/12/24 05:32:16;;;;;;;;;;;;;;;12.80;58.21;99913.61;2378343;75;50358;-78
2022/12/24 05:35:17;;;;;;;;;;;;;;;12.79;58.21;99918.59;2378366;75;50532;-78
2022/12/24 05:38:19;;;;;;;;;;;;;;;12.79;58.17;99902.67;2347511;73;51715;-78
2022/12/24 05:41:20;;;;;;;;;;;;;;;12.81;58.12;99909.95;2378376;75;50664;-78
2022/12/24 05:44:22;;;;;;;;;;;;;;;12.81;58.13;99912.61;2378334;75;50234;-77
2022/12/24 05:47:23;;;;;;;;;;;;;;;12.80;58.20;99912.28;2378159;75;50326;-78
2022/12/24 05:50:25;;;;;;;;;;;;;;;12.79;58.32;99921.25;2321408;75;51709;-77
2022/12/24 05:53:27;;;;;;;;;;;;;;;12.80;58.20;99936.68;2378300;75;50426;-77
2022/12/24 05:56:28;;;;;;;;;;;;;;;12.81;58.21;99938.33;2339675;74;50254;-77
2022/12/24 05:59:30;;;;;;;;;;;;;;;12.79;58.27;99934.53;2345229;74;50883;-77
2022/12/24 06:02:31;;;;;;;;;;;;;;;12.80;58.24;99936.68;2299549;76;51306;-78
2022/12/24 06:05:33;;;;;;;;;;;;;;;12.80;58.18;99944.14;2325387;76;50846;-78
2022/12/24 06:08:35;;;;;;;;;;;;;;;12.82;58.12;99953.28;2345076;74;50366;-78
2022/12/24 06:11:36;;;;;;;;;;;;;;;12.80;58.26;99953.94;2325604;76;51415;-77
2022/12/24 06:14:38;;;;;;;;;;;;;;;12.80;58.28;99956.59;2299519;76;52337;-78
2022/12/24 06:17:39;;;;;;;;;;;;;;;12.80;58.23;99961.40;2325277;74;51525;-78
2022/12/24 06:20:41;;;;;;;;;;;;;;;12.79;58.24;99966.38;2325604;76;51462;-78
2022/12/24 06:23:43;;;;;;;;;;;;;;;12.79;58.23;99952.25;2345524;76;51523;-77
2022/12/24 06:26:45;;;;;;;;;;;;;;;12.78;58.27;99960.72;2321053;74;50917;-78
2022/12/24 06:29:46;;;;;;;;;;;;;;;12.79;58.27;99978.33;2365603;74;50213;-78
2022/12/24 06:32:48;;;;;;;;;;;;;;;12.79;58.25;99986.30;2394138;74;50014;-77
2022/12/24 06:35:49;;;;;;;;;;;;;;;12.80;58.21;99988.45;2365669;74;50420;-78
2022/12/24 06:38:52;;;;;;;;;;;;;;;12.79;58.24;99987.63;2393948;73;50827;-78
2022/12/24 06:41:53;;;;;;;;;;;;;;;12.79;58.19;99994.26;2365895;74;51513;-78
2022/12/24 06:44:55;;;;;;;;;;;;;;;12.79;58.31;100002.22;2394255;74;51321;-78
2022/12/24 06:47:57;;;;;;;;;;;;;;;12.80;58.21;100003.88;2394173;73;51449;-77
2022/12/24 06:51:00;;;;;;;;;;;;;;;12.79;58.27;100010.19;2365893;74;52316;-78
2022/12/24 06:54:01;;;;;;;;;;;;;;;12.80;58.27;100004.38;2389507;74;50824;-77
2022/12/24 06:57:04;;;;;;;;;;;;;;;12.80;58.22;99995.91;2356279;75;50840;-77
2022/12/24 07:00:06;;;;;;;;;;;;;;;12.80;58.25;99999.89;2344660;74;51652;-77
2022/12/24 07:03:08;;;;;;;;;;;;;;;12.80;58.27;100009.19;2328030;76;51733;-77
2022/12/24 07:06:11;;;;;;;;;;;;;;;12.80;58.24;100021.13;2347652;76;51388;-77
2022/12/24 07:09:13;;;;;;;;;;;;;;;12.80;58.16;100026.44;2349371;74;51511;-77
2022/12/24 07:12:14;;;;;;;;;;;;;;;12.79;58.26;100017.30;2314136;76;51969;-78
2022/12/24 07:15:16;;;;;;;;;;;;;;;12.80;58.25;100027.77;2289031;77;49593;-78
2022/12/24 07:18:18;;;;;;;;;;;;;;;12.80;58.22;100037.06;2315015;75;50347;-79
2022/12/24 07:21:19;;;;;;;;;;;;;;;12.79;58.34;100053.13;2310190;76;50659;-77
2022/12/24 07:24:21;;;;;;;;;;;;;;;12.79;58.29;100045.17;2315758;76;50814;-78
2022/12/24 07:27:22;;;;;;;;;;;;;;;12.79;58.25;100048.68;2337089;75;51722;-78
2022/12/24 07:30:24;;;;;;;;;;;;;;;12.78;58.27;100056.29;2345263;74;50773;-78
2022/12/24 07:33:26;;;;;;;;;;;;;;;12.78;58.33;100070.89;2325420;76;51485;-77
2022/12/24 07:36:27;;;;;;;;;;;;;;;12.77;58.30;100067.91;2345353;76;51474;-78
2022/12/24 07:39:29;;;;;;;;;;;;;;;12.78;58.29;100072.22;2325345;75;52354;-77
2022/12/24 07:42:30;;;;;;;;;;;;;;;12.78;58.31;100070.89;2345512;74;51627;-77
2022/12/24 07:45:32;;;;;;;;;;;;;;;12.77;58.33;100066.59;2325578;76;50266;-78
2022/12/24 07:48:33;;;;;;;;;;;;;;;12.78;58.33;100065.58;2325172;75;50380;-78
2022/12/24 07:51:35;;;;;;;;;;;;;;;12.80;58.24;100073.40;2345385;76;50361;-77
2022/12/24 07:54:37;;;;;;;;;;;;;;;12.78;58.27;100086.82;2335032;75;50686;-78
2022/12/24 07:57:38;;;;;;;;;;;;;;;12.80;58.23;100098.12;2347367;73;50285;-77
2022/12/24 08:00:40;;;;;;;;;;;;;;;12.79;58.28;100096.47;2348133;75;50539;-77
2022/12/24 08:03:41;;;;;;;;;;;;;;;12.79;58.27;100097.80;2347392;75;51705;-78
2022/12/24 08:06:43;;;;;;;;;;;;;;;12.77;58.32;100095.78;2347630;75;51451;-78
2022/12/24 08:09:45;;;;;;;;;;;;;;;12.77;58.33;100101.09;2347552;75;51519;-77
2022/12/24 08:12:47;;;;;;;;;;;;;;;12.78;58.37;100099.27;2378055;75;51579;-78
2022/12/24 08:15:48;;;;;;;;;;;;;;;12.78;58.33;100094.78;2347711;75;50844;-78
2022/12/24 08:18:50;;;;;;;;;;;;;;;12.78;58.26;100096.11;2347308;73;50667;-77
2022/12/24 08:21:52;;;;;;;;;;;;;;;12.78;58.34;100101.42;2378188;75;50401;-78
2022/12/24 08:24:53;;;;;;;;;;;;;;;12.79;58.26;100106.23;2365954;75;50416;-77
2022/12/24 08:27:55;;;;;;;;;;;;;;;12.79;58.29;100101.78;2368922;73;50718;-78
2022/12/24 08:30:56;;;;;;;;;;;;;;;12.78;58.32;100104.08;2378075;75;51428;-78
2022/12/24 08:33:58;;;;;;;;;;;;;;;12.79;58.29;100111.06;2378062;75;50753;-77
2022/12/24 08:37:00;;;;;;;;;;;;;;;12.78;58.35;100117.34;2378005;75;50434;-78
2022/12/24 08:40:02;;;;;;;;;;;;;;;12.80;58.24;100115.37;2378138;73;50744;-77
2022/12/24 08:43:03;;;;;;;;;;;;;;;12.78;58.32;100113.37;2347644;75;51619;-77
2022/12/24 08:46:05;;;;;;;;;;;;;;;12.79;58.30;100119.50;2377963;75;51370;-77
2022/12/24 08:49:06;;;;;;;;;;;;;;;12.78;58.31;100125.31;2348359;75;51568;-79
2022/12/24 08:52:08;;;;;;;;;;;;;;;12.78;58.26;100131.95;2348050;75;52390;-78
2022/12/24 08:55:10;;;;;;;;;;;;;;;12.77;58.35;100130.30;2367277;75;51490;-78
2022/12/24 08:58:11;;;;;;;;;;;;;;;12.77;58.34;100136.11;2351563;74;50097;-78
2022/12/24 09:01:14;;;;;;;;;;;;;;;12.78;58.32;100133.28;2345744;76;50310;-78
2022/12/24 09:04:15;;;;;;;;;;;;;;;12.78;58.35;100142.57;2325721;76;52439;-78
2022/12/24 09:07:17;;;;;;;;;;;;;;;12.78;58.27;100142.57;2325602;76;51613;-78
2022/12/24 09:10:18;;;;;;;;;;;;;;;12.78;58.35;100147.88;2325745;75;50055;-78
2022/12/24 09:13:20;;;;;;;;;;;;;;;12.78;58.36;100151.86;2325802;76;50037;-78
2022/12/24 09:16:21;;;;;;;;;;;;;;;12.78;58.35;100157.17;2325506;76;51196;-79
2022/12/24 09:19:23;;;;;;;;;;;;;;;12.77;58.39;100160.83;2325817;75;50694;-78
2022/12/24 09:22:25;;;;;;;;;;;;;;;12.79;58.36;100172.13;2325909;76;51630;-78
2022/12/24 09:25:26;;;;;;;;;;;;;;;12.78;58.34;100167.79;2353217;75;50540;-79
2022/12/24 09:28:28;;;;;;;;;;;;;;;12.79;58.30;100166.82;2326990;74;51048;-77
2022/12/24 09:31:29;;;;;;;;;;;;;;;12.79;58.33;100168.15;2325529;76;51464;-78
2022/12/24 09:34:31;;;;;;;;;;;;;;;12.80;58.32;100172.95;2345672;76;50116;-78
2022/12/24 09:37:32;;;;;;;;;;;;;;;12.79;58.35;100181.89;2345613;76;50776;-77
2022/12/24 09:40:39;;;;;;;;;;;;;;;12.79;58.34;100189.85;2299941;76;50086;-78
2022/12/24 09:43:42;;;;;;;;;;;;;;;12.77;58.35;100187.38;2344953;74;51622;-77
2022/12/24 09:46:43;;;;;;;;;;;;;;;12.78;58.40;100204.95;2345106;75;51450;-79
2022/12/24 09:49:46;;;;;;;;;;;;;;;12.78;58.32;100202.30;2345390;74;51486;-77
2022/12/24 09:52:48;;;;;;;;;;;;;;;12.79;58.31;100211.95;2325325;76;52650;-77
2022/12/24 09:55:50;;;;;;;;;;;;;;;12.78;58.34;100223.54;2356210;75;51615;-78
2022/12/24 09:59:03;;;;;;;;;;;;;;;12.79;58.31;100226.55;2345170;74;51623;-77
2022/12/24 10:02:06;;;;;;;;;;;;;;;12.78;58.33;100223.54;2344589;75;50765;-76
2022/12/24 10:05:09;;;;;;;;;;;;;;;12.78;58.35;100234.16;2325183;76;51773;-77
2022/12/24 10:08:12;;;;;;;;;;;;;;;12.79;58.41;100244.28;2345043;74;51390;-77
2022/12/24 10:11:23;;;;;;;;;;;;;;;12.80;58.31;100244.14;2345253;76;51588;-77
2022/12/24 10:14:39;;;;;;;;;;;;;;;12.79;58.31;100246.47;2345312;76;51498;-78
2022/12/24 10:17:42;;;;;;;;;;;;;;;12.79;58.31;100249.12;2258457;77;50349;-77
2022/12/24 10:21:01;;;;;;;;;;;;;;;12.78;58.35;100251.41;2258764;78;50316;-77
2022/12/24 10:24:05;;;;;;;;;;;;;;;12.78;58.38;100258.05;2258712;78;50294;-78
2022/12/24 10:27:14;;;;;;;;;;;;;;;12.81;58.29;100251.60;2270081;76;51594;-78
2022/12/24 10:30:17;;;;;;;;;;;;;;;12.79;58.42;100267.70;2234320;78;52594;-78
2022/12/24 10:33:21;;;;;;;;;;;;;;;12.79;58.37;100264.19;2259028;78;51563;-77
2022/12/24 10:36:24;;;;;;;;;;;;;;;12.79;58.38;100259.73;2258529;78;51504;-77
2022/12/24 10:39:26;;;;;;;;;;;;;;;12.79;58.36;100269.03;2258791;78;51684;-78
2022/12/24 10:42:29;;;;;;;;;;;;;;;12.79;58.37;100272.16;2234302;78;49472;-77
2022/12/24 10:45:32;;;;;;;;;;;;;;;12.79;58.37;100278.33;2257753;77;50352;-78
2022/12/24 10:48:38;;;;;;;;;;;;;;;12.77;58.40;100280.30;2258774;77;50178;-77
2022/12/24 10:51:43;;;;;;;;;;;;;;;12.79;58.39;100282.30;2258953;78;51627;-78
2022/12/24 10:54:59;;;;;;;;;;;;;;;12.80;58.39;100285.29;2338522;75;51465;-78
2022/12/24 10:58:01;;;;;;;;;;;;;;;12.80;58.41;100283.96;2266968;77;50325;-77
2022/12/24 11:01:03;;;;;;;;;;;;;;;12.80;58.42;100294.58;2258969;78;51639;-78
2022/12/24 11:04:04;;;;;;;;;;;;;;;12.80;58.34;100299.89;2258797;78;50227;-78
2022/12/24 11:07:06;;;;;;;;;;;;;;;12.81;58.39;100305.53;2233978;78;51741;-78
2022/12/24 11:10:08;;;;;;;;;;;;;;;12.81;58.43;100311.34;2258868;78;50290;-78
2022/12/24 11:13:20;;;;;;;;;;;;;;;12.82;58.33;100310.38;2258917;78;50033;-78
2022/12/24 11:16:32;;;;;;;;;;;;;;;12.79;58.45;100316.82;2251416;78;51658;-78
2022/12/24 11:19:41;;;;;;;;;;;;;;;12.81;58.40;100309.51;2233881;78;52571;-77
2022/12/24 11:22:41;;;;;;;;;;;;;;;12.80;58.39;100315.82;2258532;77;22365;-78
2022/12/24 11:25:42;;;;;;;;;;;;;;;12.80;58.41;100318.48;2270320;77;50723;-78
2022/12/24 11:28:44;;;;;;;;;;;;;;;12.80;58.38;100305.20;2259106;77;50273;-78
2022/12/24 11:31:45;;;;;;;;;;;;;;;12.80;58.47;100317.15;2234420;78;51739;-78
2022/12/24 11:34:47;;;;;;;;;;;;;;;12.82;58.38;100309.05;2330123;76;51558;-77
2022/12/24 11:38:02;;;;;;;;;;;;;;;12.81;58.39;100317.98;2345276;74;51463;-77
2022/12/24 11:41:09;;;;;;;;;;;;;;;12.81;58.41;100325.94;2345741;75;50346;-78
2022/12/24 11:44:11;;;;;;;;;;;;;;;12.80;58.46;100330.42;2324842;76;52513;-77
2022/12/24 11:47:12;;;;;;;;;;;;;;;12.82;58.39;100331.11;2325576;76;50337;-77
2022/12/24 11:50:34;;;;;;;;;;;;;;;12.83;58.35;100332.77;2345492;74;50665;-77
2022/12/24 11:53:43;;;;;;;;;;;;;;;12.83;58.35;100343.39;2345599;76;51667;-77
2022/12/24 11:56:47;;;;;;;;;;;;;;;12.82;58.39;100349.70;2335947;75;51296;-78
2022/12/24 11:59:50;;;;;;;;;;;;;;;12.82;58.37;100351.02;2344941;74;50726;-78
2022/12/24 12:02:52;;;;;;;;;;;;;;;12.82;58.46;100352.35;2345784;76;50361;-77
2022/12/24 12:05:53;;;;;;;;;;;;;;;12.83;58.42;100351.85;2345317;76;50786;-77
2022/12/24 12:08:56;;;;;;;;;;;;;;;12.82;58.46;100357.66;2325286;75;52751;-77
2022/12/24 12:12:02;;;;;;;;;;;;;;;12.82;58.42;100354.18;2325547;76;50709;-78
2022/12/24 12:15:12;;;;;;;;;;;;;;;12.83;58.43;100356.66;2339217;75;51626;-77
2022/12/24 12:18:15;;;;;;;;;;;;;;;12.84;58.42;100362.34;2345123;74;50325;-77
2022/12/24 12:21:17;;;;;;;;;;;;;;;12.84;58.39;100359.67;2345599;75;50333;-78
2022/12/24 12:24:20;;;;;;;;;;;;;;;12.84;58.37;100364.12;2345596;76;51361;-78
2022/12/24 12:27:26;;;;;;;;;;;;;;;12.84;58.41;100371.63;2356486;75;51549;-78
2022/12/24 12:30:28;;;;;;;;;;;;;;;12.83;58.41;100363.30;2345571;74;50415;-78
2022/12/24 12:33:37;;;;;;;;;;;;;;;12.84;58.38;100367.64;2325425;76;51720;-78
2022/12/24 12:36:41;;;;;;;;;;;;;;;12.83;58.50;100369.94;2345177;75;51565;-78
2022/12/24 12:39:42;;;;;;;;;;;;;;;12.82;58.45;100370.94;2345670;74;50323;-78
2022/12/24 12:42:45;;;;;;;;;;;;;;;12.85;58.38;100365.31;2345622;76;50721;-78
2022/12/24 12:45:54;;;;;;;;;;;;;;;12.85;58.44;100376.44;2345289;74;50703;-78
2022/12/24 12:48:58;;;;;;;;;;;;;;;12.85;58.39;100381.25;2345155;74;50718;-78
2022/12/24 12:52:17;;;;;;;;;;;;;;;12.86;58.35;100388.22;2345272;75;50729;-78
2022/12/24 12:55:21;;;;;;;;;;;;;;;12.84;58.46;100390.21;2351856;73;50897;-78
2022/12/24 12:58:33;;;;;;;;;;;;;;;12.84;58.41;100399.97;2327991;74;51792;-78
2022/12/24 13:01:51;;;;;;;;;;;;;;;12.83;58.47;100393.83;2345721;76;51526;-77
2022/12/24 13:05:01;;;;;;;;;;;;;;;12.82;58.51;100401.47;2345485;75;50354;-77
2022/12/24 13:08:20;;;;;;;;;;;;;;;12.82;58.47;100397.48;2346932;74;51594;-77
2022/12/24 13:11:24;;;;;;;;;;;;;;;12.83;58.50;100399.64;2327858;76;50165;-78
2022/12/24 13:14:27;;;;;;;;;;;;;;;12.83;58.50;100393.01;2348205;75;50285;-78
2022/12/24 13:17:36;;;;;;;;;;;;;;;12.83;58.54;100403.63;2347422;75;50296;-78
2022/12/24 13:20:39;;;;;;;;;;;;;;;12.83;58.47;100393.83;2347732;76;51477;-78
2022/12/24 13:23:41;;;;;;;;;;;;;;;12.83;58.44;100393.01;2326433;76;52996;-77
2022/12/24 13:26:42;;;;;;;;;;;;;;;12.81;58.58;100398.45;2355780;75;51502;-77
2022/12/24 13:29:45;;;;;;;;;;;;;;;12.82;58.53;100401.47;2378093;73;50250;-77
2022/12/24 13:32:48;;;;;;;;;;;;;;;12.83;58.50;100400.97;2377172;73;50465;-78
2022/12/24 13:36:00;;;;;;;;;;;;;;;12.82;58.54;100409.44;2378332;75;51515;-78
2022/12/24 13:39:01;;;;;;;;;;;;;;;12.81;58.64;100410.91;2347816;75;50572;-78
2022/12/24 13:42:03;;;;;;;;;;;;;;;12.81;58.67;100417.04;2378407;74;50726;-78
2022/12/24 13:45:22;;;;;;;;;;;;;;;12.83;58.63;100422.21;2378296;75;50119;-78
2022/12/24 13:48:31;;;;;;;;;;;;;;;12.82;58.63;100427.20;2377978;73;50344;-78
2022/12/24 13:51:33;;;;;;;;;;;;;;;12.82;58.60;100434.66;2377986;75;50716;-77
2022/12/24 13:54:34;;;;;;;;;;;;;;;12.82;58.64;100438.64;2368665;75;51518;-77
2022/12/24 13:57:49;;;;;;;;;;;;;;;12.83;58.59;100442.12;2356099;74;51545;-78
2022/12/24 14:00:55;;;;;;;;;;;;;;;12.83;58.58;100444.28;2345604;76;51536;-78
2022/12/24 14:03:57;;;;;;;;;;;;;;;12.81;58.62;100450.23;2325003;76;51095;-76
2022/12/24 14:06:59;;;;;;;;;;;;;;;12.82;58.58;100457.23;2344745;76;50071;-77
2022/12/24 14:10:01;;;;;;;;;;;;;;;12.82;58.59;100465.69;2344962;74;51460;-76
2022/12/24 14:13:07;;;;;;;;;;;;;;;12.81;58.62;100470.14;2344952;76;51604;-76
2022/12/24 14:16:12;;;;;;;;;;;;;;;12.81;58.62;100467.48;2344681;75;22417;-77
2022/12/24 14:19:15;;;;;;;;;;;;;;;12.82;58.63;100477.14;2344875;74;50696;-76
2022/12/24 14:22:34;;;;;;;;;;;;;;;12.83;58.60;100487.27;2345012;75;51532;-76
2022/12/24 14:25:35;;;;;;;;;;;;;;;12.83;58.57;100481.95;2354171;75;50313;-77
2022/12/24 14:28:38;;;;;;;;;;;;;;;12.83;58.59;100485.44;2347314;75;51366;-77
2022/12/24 14:31:42;;;;;;;;;;;;;;;12.81;58.62;100488.73;2377730;75;50457;-77
2022/12/24 14:34:43;;;;;;;;;;;;;;;12.83;58.71;100497.39;2376147;74;50307;-77
2022/12/24 14:37:46;;;;;;;;;;;;;;;12.83;58.58;100496.06;2377473;73;50245;-77
2022/12/24 14:40:53;;;;;;;;;;;;;;;12.83;58.61;100498.72;2347177;75;50169;-78
2022/12/24 14:44:00;;;;;;;;;;;;;;;12.83;58.66;100505.85;2377745;75;50882;-77
2022/12/24 14:47:06;;;;;;;;;;;;;;;12.81;58.71;100502.50;2377368;75;50837;-77
2022/12/24 14:50:22;;;;;;;;;;;;;;;12.81;58.73;100512.63;2375849;73;51674;-77
2022/12/24 14:53:25;;;;;;;;;;;;;;;12.81;58.76;100515.28;2347148;75;51236;-77
2022/12/24 14:56:26;;;;;;;;;;;;;;;12.80;58.68;100517.61;2356929;75;50455;-77
2022/12/24 14:59:28;;;;;;;;;;;;;;;12.80;58.66;100518.93;2345090;74;51400;-77
2022/12/24 15:02:38;;;;;;;;;;;;;;;12.80;58.73;100521.59;2345040;76;50726;-76
2022/12/24 15:05:39;;;;;;;;;;;;;;;12.80;58.72;100526.90;2325226;76;51249;-77
2022/12/24 15:08:43;;;;;;;;;;;;;;;12.79;58.73;100534.53;2344837;74;50355;-76
2022/12/24 15:11:44;;;;;;;;;;;;;;;12.82;58.68;100540.87;2345090;75;50263;-77
2022/12/24 15:14:46;;;;;;;;;;;;;;;12.81;58.79;100546.31;2345039;76;51551;-77
2022/12/24 15:17:48;;;;;;;;;;;;;;;12.79;58.74;100549.13;2325011;74;51185;-77
2022/12/24 15:20:50;;;;;;;;;;;;;;;12.79;58.78;100557.09;2345084;76;50091;-77
2022/12/24 15:23:52;;;;;;;;;;;;;;;12.80;58.77;100557.93;2345154;76;51517;-77
2022/12/24 15:26:54;;;;;;;;;;;;;;;12.80;58.74;100561.41;2355737;75;51488;-77
2022/12/24 15:29:56;;;;;;;;;;;;;;;12.79;58.78;100567.72;2325029;75;51213;-77
2022/12/24 15:32:57;;;;;;;;;;;;;;;12.80;58.72;100565.39;2344987;76;50281;-77
2022/12/24 15:35:59;;;;;;;;;;;;;;;12.80;58.71;100579.17;2344956;76;50252;-77
2022/12/24 15:39:02;;;;;;;;;;;;;;;12.80;58.77;100573.86;2344972;74;52555;-77
2022/12/24 15:42:13;;;;;;;;;;;;;;;12.80;58.78;100576.52;2323706;76;52699;-78
2022/12/24 15:45:16;;;;;;;;;;;;;;;12.79;58.86;100579.67;2345028;76;51633;-77
2022/12/24 15:48:20;;;;;;;;;;;;;;;12.79;58.82;100583.65;2344890;74;51566;-77
2022/12/24 15:51:26;;;;;;;;;;;;;;;12.79;58.85;100582.33;2345076;76;51667;-77
2022/12/24 15:54:27;;;;;;;;;;;;;;;12.80;58.71;100589.30;2332777;75;51093;-76
2022/12/24 15:57:32;;;;;;;;;;;;;;;12.80;58.71;100586.64;2347691;75;50673;-78
2022/12/24 16:00:34;;;;;;;;;;;;;;;12.80;58.72;100605.22;2344987;74;51502;-77